sensor_id;sensor_type;location;lat;lon;timestamp;pressure;altitude;pressure_sealevel;temperature;humidity
26043;BME280;13818;52.156;5.382;2024-02-15T00:00:58;101386.50;;;13.01;100.00
26043;BME280;13818;52.156;5.382;2024-02-15T00:03:25;101390.06;;;13.01;100.00
26043;BME280;13818;52.156;5.382;2024-02-15T00:05:52;101390.63;;;13.08;100.00
26043;BME280;13818;52.156;5.382;2024-02-15T00:08:19;101389.59;;;13.11;100.00
26043;BME280;13818;52.156;5.382;2024-02-15T00:10:47;101391.81;;;13.02;100.00
26043;BME280;13818;52.156;5.382;2024-02-15T00:13:14;101389.47;;;13.14;100.00
26043;BME280;13818;52.156;5.382;2024-02-15T00:15:42;101386.84;;;13.12;100.00
26043;BME280;13818;52.156;5.382;2024-02-15T00:18:09;101392.53;;;13.06;100.00
26043;BME280;13818;52.156;5.382;2024-02-15T00:20:36;101387.38;;;13.01;100.00
26043;BME280;13818;52.156;5.382;2024-02-15T00:23:04;101384.50;;;13.06;100.00
26043;BME280;13818;52.156;5.382;2024-02-15T00:25:31;101391.19;;;12.96;100.00
26043;BME280;13818;52.156;5.382;2024-02-15T00:27:59;101380.44;;;12.97;100.00
26043;BME280;13818;52.156;5.382;2024-02-15T00:30:27;101389.34;;;12.98;100.00
26043;BME280;13818;52.156;5.382;2024-02-15T00:32:54;101384.16;;;12.95;100.00
26043;BME280;13818;52.156;5.382;2024-02-15T00:35:20;101400.69;;;13.03;100.00
26043;BME280;13818;52.156;5.382;2024-02-15T00:37:47;101390.28;;;12.97;100.00
26043;BME280;13818;52.156;5.382;2024-02-15T00:40:15;101385.66;;;13.00;100.00
26043;BME280;13818;52.156;5.382;2024-02-15T00:42:41;101380.28;;;13.00;100.00
26043;BME280;13818;52.156;5.382;2024-02-15T00:45:10;101381.03;;;13.04;100.00
26043;BME280;13818;52.156;5.382;2024-02-15T00:47:36;101375.75;;;13.02;100.00
26043;BME280;13818;52.156;5.382;2024-02-15T00:50:04;101379.56;;;12.97;100.00
26043;BME280;13818;52.156;5.382;2024-02-15T00:52:31;101373.44;;;12.95;100.00
26043;BME280;13818;52.156;5.382;2024-02-15T00:54:57;101364.44;;;12.96;100.00
26043;BME280;13818;52.156;5.382;2024-02-15T00:57:24;101361.47;;;13.02;100.00
26043;BME280;13818;52.156;5.382;2024-02-15T00:59:51;101369.59;;;13.00;100.00
26043;BME280;13818;52.156;5.382;2024-02-15T01:02:20;101369.06;;;12.92;100.00
26043;BME280;13818;52.156;5.382;2024-02-15T01:04:50;101368.22;;;12.92;100.00
26043;BME280;13818;52.156;5.382;2024-02-15T01:07:18;101365.34;;;12.96;100.00
26043;BME280;13818;52.156;5.382;2024-02-15T01:09:44;101366.47;;;12.91;100.00
26043;BME280;13818;52.156;5.382;2024-02-15T01:12:11;101364.31;;;12.99;100.00
26043;BME280;13818;52.156;5.382;2024-02-15T01:14:38;101364.44;;;12.96;100.00
26043;BME280;13818;52.156;5.382;2024-02-15T01:17:05;101356.59;;;12.93;100.00
26043;BME280;13818;52.156;5.382;2024-02-15T01:19:33;101365.63;;;12.90;100.00
26043;BME280;13818;52.156;5.382;2024-02-15T01:22:00;101366.63;;;12.88;100.00
26043;BME280;13818;52.156;5.382;2024-02-15T01:24:29;101361.13;;;12.91;100.00
26043;BME280;13818;52.156;5.382;2024-02-15T01:26:55;101359.38;;;12.90;100.00
26043;BME280;13818;52.156;5.382;2024-02-15T01:29:23;101346.81;;;12.92;100.00
26043;BME280;13818;52.156;5.382;2024-02-15T01:31:51;101354.00;;;12.91;100.00
26043;BME280;13818;52.156;5.382;2024-02-15T01:34:17;101359.72;;;12.83;100.00
26043;BME280;13818;52.156;5.382;2024-02-15T01:36:47;101349.94;;;12.82;100.00
26043;BME280;13818;52.156;5.382;2024-02-15T01:39:14;101343.56;;;12.85;100.00
26043;BME280;13818;52.156;5.382;2024-02-15T01:41:46;101357.03;;;12.83;100.00
26043;BME280;13818;52.156;5.382;2024-02-15T01:44:13;101355.34;;;12.81;100.00
26043;BME280;13818;52.156;5.382;2024-02-15T01:46:40;101359.91;;;12.79;100.00
26043;BME280;13818;52.156;5.382;2024-02-15T01:49:07;101349.13;;;12.80;100.00
26043;BME280;13818;52.156;5.382;2024-02-15T01:51:34;101353.63;;;12.80;100.00
26043;BME280;13818;52.156;5.382;2024-02-15T01:54:04;101352.09;;;12.74;100.00
26043;BME280;13818;52.156;5.382;2024-02-15T01:56:31;101355.66;;;12.75;100.00
26043;BME280;13818;52.156;5.382;2024-02-15T01:58:58;101349.41;;;12.74;100.00
26043;BME280;13818;52.156;5.382;2024-02-15T02:01:25;101343.06;;;12.77;100.00
26043;BME280;13818;52.156;5.382;2024-02-15T02:03:52;101334.94;;;12.78;100.00
26043;BME280;13818;52.156;5.382;2024-02-15T02:06:19;101334.09;;;12.78;100.00
26043;BME280;13818;52.156;5.382;2024-02-15T02:08:45;101328.66;;;12.79;100.00
26043;BME280;13818;52.156;5.382;2024-02-15T02:11:13;101329.03;;;12.72;100.00
26043;BME280;13818;52.156;5.382;2024-02-15T02:13:40;101334.31;;;12.73;100.00
26043;BME280;13818;52.156;5.382;2024-02-15T02:16:25;101324.41;;;12.75;100.00
26043;BME280;13818;52.156;5.382;2024-02-15T02:18:54;101320.16;;;12.71;100.00
26043;BME280;13818;52.156;5.382;2024-02-15T02:21:21;101327.47;;;12.67;100.00
26043;BME280;13818;52.156;5.382;2024-02-15T02:23:53;101323.84;;;12.68;100.00
26043;BME280;13818;52.156;5.382;2024-02-15T02:26:23;101329.94;;;12.72;100.00
26043;BME280;13818;52.156;5.382;2024-02-15T02:28:51;101326.56;;;12.67;100.00
26043;BME280;13818;52.156;5.382;2024-02-15T02:31:18;101313.06;;;12.70;100.00
26043;BME280;13818;52.156;5.382;2024-02-15T02:33:47;101311.53;;;12.64;100.00
26043;BME280;13818;52.156;5.382;2024-02-15T02:36:14;101306.84;;;12.69;100.00
26043;BME280;13818;52.156;5.382;2024-02-15T02:38:42;101306.91;;;12.68;100.00
26043;BME280;13818;52.156;5.382;2024-02-15T02:41:10;101307.56;;;12.73;100.00
26043;BME280;13818;52.156;5.382;2024-02-15T02:43:40;101308.53;;;12.72;100.00
26043;BME280;13818;52.156;5.382;2024-02-15T02:46:09;101318.34;;;12.72;100.00
26043;BME280;13818;52.156;5.382;2024-02-15T02:48:36;101321.75;;;12.75;100.00
26043;BME280;13818;52.156;5.382;2024-02-15T02:51:03;101321.00;;;12.72;100.00
26043;BME280;13818;52.156;5.382;2024-02-15T02:53:30;101316.56;;;12.72;100.00
26043;BME280;13818;52.156;5.382;2024-02-15T02:55:57;101321.91;;;12.72;100.00
26043;BME280;13818;52.156;5.382;2024-02-15T02:58:23;101314.84;;;12.69;100.00
26043;BME280;13818;52.156;5.382;2024-02-15T03:00:52;101312.88;;;12.75;100.00
26043;BME280;13818;52.156;5.382;2024-02-15T03:03:19;101305.19;;;12.67;100.00
26043;BME280;13818;52.156;5.382;2024-02-15T03:05:45;101305.91;;;12.70;100.00
26043;BME280;13818;52.156;5.382;2024-02-15T03:08:12;101311.34;;;12.69;100.00
26043;BME280;13818;52.156;5.382;2024-02-15T03:10:38;101311.34;;;12.69;100.00
26043;BME280;13818;52.156;5.382;2024-02-15T03:13:06;101315.22;;;12.62;100.00
26043;BME280;13818;52.156;5.382;2024-02-15T03:15:33;101316.75;;;12.67;100.00
26043;BME280;13818;52.156;5.382;2024-02-15T03:18:01;101305.53;;;12.59;100.00
26043;BME280;13818;52.156;5.382;2024-02-15T03:20:32;101298.47;;;12.58;100.00
26043;BME280;13818;52.156;5.382;2024-02-15T03:23:00;101299.47;;;12.56;100.00
26043;BME280;13818;52.156;5.382;2024-02-15T03:25:28;101302.09;;;12.57;100.00
26043;BME280;13818;52.156;5.382;2024-02-15T03:27:56;101300.06;;;12.62;100.00
26043;BME280;13818;52.156;5.382;2024-02-15T03:30:24;101300.78;;;12.66;100.00
26043;BME280;13818;52.156;5.382;2024-02-15T03:32:51;101297.16;;;12.67;100.00
26043;BME280;13818;52.156;5.382;2024-02-15T03:35:20;101299.19;;;12.62;100.00
26043;BME280;13818;52.156;5.382;2024-02-15T03:37:49;101301.72;;;12.65;100.00
26043;BME280;13818;52.156;5.382;2024-02-15T03:40:17;101294.47;;;12.67;100.00
26043;BME280;13818;52.156;5.382;2024-02-15T03:42:44;101284.97;;;12.61;100.00
26043;BME280;13818;52.156;5.382;2024-02-15T03:45:12;101293.72;;;12.65;100.00
26043;BME280;13818;52.156;5.382;2024-02-15T03:47:39;101294.72;;;12.62;100.00
26043;BME280;13818;52.156;5.382;2024-02-15T03:50:07;101296.47;;;12.63;100.00
26043;BME280;13818;52.156;5.382;2024-02-15T03:52:36;101289.38;;;12.62;100.00
26043;BME280;13818;52.156;5.382;2024-02-15T03:55:04;101297.41;;;12.62;100.00
26043;BME280;13818;52.156;5.382;2024-02-15T03:57:32;101299.19;;;12.62;100.00
26043;BME280;13818;52.156;5.382;2024-02-15T04:00:00;101293.78;;;12.63;100.00
26043;BME280;13818;52.156;5.382;2024-02-15T04:02:27;101285.97;;;12.59;100.00
26043;BME280;13818;52.156;5.382;2024-02-15T04:04:55;101280.34;;;12.65;100.00
26043;BME280;13818;52.156;5.382;2024-02-15T04:07:22;101280.72;;;12.57;100.00
26043;BME280;13818;52.156;5.382;2024-02-15T04:09:52;101293.28;;;12.55;100.00
26043;BME280;13818;52.156;5.382;2024-02-15T04:12:17;101291.31;;;12.59;100.00
26043;BME280;13818;52.156;5.382;2024-02-15T04:14:44;101289.66;;;12.56;100.00
26043;BME280;13818;52.156;5.382;2024-02-15T04:17:12;101289.56;;;12.58;100.00
26043;BME280;13818;52.156;5.382;2024-02-15T04:19:40;101296.38;;;12.65;100.00
26043;BME280;13818;52.156;5.382;2024-02-15T04:22:07;101284.09;;;12.61;100.00
26043;BME280;13818;52.156;5.382;2024-02-15T04:24:33;101283.09;;;12.63;100.00
26043;BME280;13818;52.156;5.382;2024-02-15T04:27:07;101283.88;;;12.65;100.00
26043;BME280;13818;52.156;5.382;2024-02-15T04:29:37;101278.59;;;12.64;100.00
26043;BME280;13818;52.156;5.382;2024-02-15T04:32:06;101279.53;;;12.63;100.00
26043;BME280;13818;52.156;5.382;2024-02-15T04:34:35;101289.38;;;12.62;100.00
26043;BME280;13818;52.156;5.382;2024-02-15T04:37:02;101289.22;;;12.65;100.00
26043;BME280;13818;52.156;5.382;2024-02-15T04:39:31;101282.94;;;12.66;100.00
26043;BME280;13818;52.156;5.382;2024-02-15T04:41:58;101278.69;;;12.62;100.00
26043;BME280;13818;52.156;5.382;2024-02-15T04:44:27;101278.59;;;12.64;100.00
26043;BME280;13818;52.156;5.382;2024-02-15T04:46:53;101274.09;;;12.64;100.00
26043;BME280;13818;52.156;5.382;2024-02-15T04:49:20;101274.09;;;12.64;100.00
26043;BME280;13818;52.156;5.382;2024-02-15T04:51:48;101276.09;;;12.61;100.00
26043;BME280;13818;52.156;5.382;2024-02-15T04:54:15;101262.63;;;12.62;100.00
26043;BME280;13818;52.156;5.382;2024-02-15T04:56:43;101268.28;;;12.56;100.00
26043;BME280;13818;52.156;5.382;2024-02-15T04:59:11;101271.59;;;12.61;100.00
26043;BME280;13818;52.156;5.382;2024-02-15T05:01:41;101260.16;;;12.58;100.00
26043;BME280;13818;52.156;5.382;2024-02-15T05:04:09;101260.25;;;12.56;100.00
26043;BME280;13818;52.156;5.382;2024-02-15T05:06:36;101256.63;;;12.57;100.00
26043;BME280;13818;52.156;5.382;2024-02-15T05:09:04;101262.72;;;12.61;100.00
26043;BME280;13818;52.156;5.382;2024-02-15T05:11:33;101261.09;;;12.57;100.00
26043;BME280;13818;52.156;5.382;2024-02-15T05:14:00;101268.91;;;12.61;100.00
26043;BME280;13818;52.156;5.382;2024-02-15T05:16:28;101274.97;;;12.65;100.00
26043;BME280;13818;52.156;5.382;2024-02-15T05:18:58;101266.31;;;12.60;100.00
26043;BME280;13818;52.156;5.382;2024-02-15T05:21:24;101277.00;;;12.60;100.00
26043;BME280;13818;52.156;5.382;2024-02-15T05:23:51;101273.25;;;12.64;100.00
26043;BME280;13818;52.156;5.382;2024-02-15T05:26:18;101267.38;;;12.56;100.00
26043;BME280;13818;52.156;5.382;2024-02-15T05:28:48;101266.53;;;12.55;100.00
26043;BME280;13818;52.156;5.382;2024-02-15T05:31:17;101269.00;;;12.60;100.00
26043;BME280;13818;52.156;5.382;2024-02-15T05:33:45;101261.03;;;12.58;100.00
26043;BME280;13818;52.156;5.382;2024-02-15T05:36:14;101259.97;;;12.62;100.00
26043;BME280;13818;52.156;5.382;2024-02-15T05:38:41;101250.28;;;12.60;100.00
26043;BME280;13818;52.156;5.382;2024-02-15T05:41:11;101230.03;;;12.54;100.00
26043;BME280;13818;52.156;5.382;2024-02-15T05:43:39;101223.66;;;12.57;100.00
26043;BME280;13818;52.156;5.382;2024-02-15T05:46:07;101202.91;;;12.62;100.00
26043;BME280;13818;52.156;5.382;2024-02-15T05:48:35;101188.91;;;12.57;100.00
26043;BME280;13818;52.156;5.382;2024-02-15T05:51:02;101186.16;;;12.58;100.00
26043;BME280;13818;52.156;5.382;2024-02-15T05:53:31;101196.78;;;12.60;100.00
26043;BME280;13818;52.156;5.382;2024-02-15T05:56:01;101210.09;;;12.61;100.00
26043;BME280;13818;52.156;5.382;2024-02-15T05:58:29;101208.34;;;12.60;100.00
26043;BME280;13818;52.156;5.382;2024-02-15T06:00:56;101205.28;;;12.68;100.00
26043;BME280;13818;52.156;5.382;2024-02-15T06:03:26;101204.66;;;12.63;100.00
26043;BME280;13818;52.156;5.382;2024-02-15T06:05:54;101202.28;;;12.57;100.00
26043;BME280;13818;52.156;5.382;2024-02-15T06:08:24;101203.88;;;12.61;100.00
26043;BME280;13818;52.156;5.382;2024-02-15T06:10:52;101213.06;;;12.55;100.00
26043;BME280;13818;52.156;5.382;2024-02-15T06:13:19;101207.72;;;12.55;100.00
26043;BME280;13818;52.156;5.382;2024-02-15T06:15:45;101199.47;;;12.60;100.00
26043;BME280;13818;52.156;5.382;2024-02-15T06:18:17;101205.13;;;12.53;100.00
26043;BME280;13818;52.156;5.382;2024-02-15T06:20:47;101206.91;;;12.53;100.00
26043;BME280;13818;52.156;5.382;2024-02-15T06:23:15;101213.78;;;12.59;100.00
26043;BME280;13818;52.156;5.382;2024-02-15T06:25:42;101221.63;;;12.62;100.00
26043;BME280;13818;52.156;5.382;2024-02-15T06:28:10;101226.13;;;12.61;100.00
26043;BME280;13818;52.156;5.382;2024-02-15T06:31:04;101221.00;;;12.57;100.00
26043;BME280;13818;52.156;5.382;2024-02-15T06:33:48;101223.53;;;12.60;100.00
26043;BME280;13818;52.156;5.382;2024-02-15T06:36:34;101224.59;;;12.56;100.00
26043;BME280;13818;52.156;5.382;2024-02-15T06:39:23;101212.13;;;12.56;100.00
26043;BME280;13818;52.156;5.382;2024-02-15T06:42:07;101213.84;;;12.57;100.00
26043;BME280;13818;52.156;5.382;2024-02-15T06:44:35;101206.91;;;12.53;100.00
26043;BME280;13818;52.156;5.382;2024-02-15T06:47:02;101203.38;;;12.52;100.00
26043;BME280;13818;52.156;5.382;2024-02-15T06:49:29;101208.63;;;12.54;100.00
26043;BME280;13818;52.156;5.382;2024-02-15T06:51:55;101200.69;;;12.52;100.00
26043;BME280;13818;52.156;5.382;2024-02-15T06:54:24;101199.75;;;12.53;100.00
26043;BME280;13818;52.156;5.382;2024-02-15T06:56:51;101184.50;;;12.56;100.00
26043;BME280;13818;52.156;5.382;2024-02-15T06:59:20;101181.69;;;12.59;100.00
26043;BME280;13818;52.156;5.382;2024-02-15T07:01:49;101201.50;;;12.55;100.00
26043;BME280;13818;52.156;5.382;2024-02-15T07:04:17;101202.13;;;12.60;100.00
26043;BME280;13818;52.156;5.382;2024-02-15T07:06:44;101209.44;;;12.56;100.00
26043;BME280;13818;52.156;5.382;2024-02-15T07:09:13;101216.38;;;12.60;100.00
26043;BME280;13818;52.156;5.382;2024-02-15T07:11:43;101219.94;;;12.61;100.00
26043;BME280;13818;52.156;5.382;2024-02-15T07:14:11;101227.88;;;12.62;100.00
26043;BME280;13818;52.156;5.382;2024-02-15T07:16:38;101232.31;;;12.62;100.00
26043;BME280;13818;52.156;5.382;2024-02-15T07:19:06;101221.34;;;12.68;100.00
26043;BME280;13818;52.156;5.382;2024-02-15T07:21:34;101226.59;;;12.69;100.00
26043;BME280;13818;52.156;5.382;2024-02-15T07:24:01;101201.75;;;12.67;100.00
26043;BME280;13818;52.156;5.382;2024-02-15T07:26:30;101211.53;;;12.68;100.00
26043;BME280;13818;52.156;5.382;2024-02-15T07:28:57;101220.41;;;12.69;100.00
26043;BME280;13818;52.156;5.382;2024-02-15T07:31:28;101232.66;;;12.73;100.00
26043;BME280;13818;52.156;5.382;2024-02-15T07:33:56;101246.38;;;12.84;100.00
26043;BME280;13818;52.156;5.382;2024-02-15T07:36:24;101249.69;;;12.72;100.00
26043;BME280;13818;52.156;5.382;2024-02-15T07:38:53;101247.66;;;12.77;100.00
26043;BME280;13818;52.156;5.382;2024-02-15T07:41:21;101241.97;;;12.66;100.00
26043;BME280;13818;52.156;5.382;2024-02-15T07:43:49;101246.22;;;12.70;100.00
26043;BME280;13818;52.156;5.382;2024-02-15T07:46:17;101233.47;;;12.75;100.00
26043;BME280;13818;52.156;5.382;2024-02-15T07:48:43;101247.69;;;12.76;100.00
26043;BME280;13818;52.156;5.382;2024-02-15T07:51:12;101240.94;;;12.68;100.00
26043;BME280;13818;52.156;5.382;2024-02-15T07:53:41;101241.97;;;12.66;100.00
26043;BME280;13818;52.156;5.382;2024-02-15T07:56:09;101246.00;;;12.75;100.00
26043;BME280;13818;52.156;5.382;2024-02-15T07:58:38;101250.16;;;12.80;100.00
26043;BME280;13818;52.156;5.382;2024-02-15T08:01:06;101252.53;;;12.86;100.00
26043;BME280;13818;52.156;5.382;2024-02-15T08:03:33;101248.94;;;12.88;100.00
26043;BME280;13818;52.156;5.382;2024-02-15T08:06:00;101230.50;;;12.81;100.00
26043;BME280;13818;52.156;5.382;2024-02-15T08:08:31;101211.75;;;12.64;100.00
26043;BME280;13818;52.156;5.382;2024-02-15T08:11:01;101216.16;;;12.65;100.00
26043;BME280;13818;52.156;5.382;2024-02-15T08:13:28;101226.59;;;12.69;100.00
26043;BME280;13818;52.156;5.382;2024-02-15T08:15:55;101224.66;;;12.73;100.00
26043;BME280;13818;52.156;5.382;2024-02-15T08:18:21;101221.94;;;12.75;100.00
26043;BME280;13818;52.156;5.382;2024-02-15T08:20:48;101215.59;;;12.76;100.00
26043;BME280;13818;52.156;5.382;2024-02-15T08:23:15;101218.16;;;12.79;100.00
26043;BME280;13818;52.156;5.382;2024-02-15T08:25:41;101224.94;;;12.86;100.00
26043;BME280;13818;52.156;5.382;2024-02-15T08:28:10;101223.09;;;12.86;100.00
26043;BME280;13818;52.156;5.382;2024-02-15T08:30:38;101228.47;;;12.86;100.00
26043;BME280;13818;52.156;5.382;2024-02-15T08:33:06;101237.00;;;12.76;100.00
26043;BME280;13818;52.156;5.382;2024-02-15T08:35:35;101226.00;;;12.82;100.00
26043;BME280;13818;52.156;5.382;2024-02-15T08:38:02;101216.25;;;12.81;100.00
26043;BME280;13818;52.156;5.382;2024-02-15T08:40:30;101212.00;;;12.77;100.00
26043;BME280;13818;52.156;5.382;2024-02-15T08:42:57;101205.00;;;12.74;100.00
26043;BME280;13818;52.156;5.382;2024-02-15T08:45:25;101206.09;;;12.70;100.00
26043;BME280;13818;52.156;5.382;2024-02-15T08:47:52;101202.81;;;12.82;100.00
26043;BME280;13818;52.156;5.382;2024-02-15T08:50:19;101193.84;;;12.83;100.00
26043;BME280;13818;52.156;5.382;2024-02-15T08:52:48;101177.72;;;12.85;100.00
26043;BME280;13818;52.156;5.382;2024-02-15T08:55:16;101174.16;;;12.84;100.00
26043;BME280;13818;52.156;5.382;2024-02-15T08:57:43;101173.72;;;12.94;100.00
26043;BME280;13818;52.156;5.382;2024-02-15T09:00:11;101161.91;;;12.98;100.00
26043;BME280;13818;52.156;5.382;2024-02-15T09:02:43;101159.94;;;13.01;100.00
26043;BME280;13818;52.156;5.382;2024-02-15T09:05:10;101172.44;;;13.01;100.00
26043;BME280;13818;52.156;5.382;2024-02-15T09:07:39;101176.06;;;13.00;100.00
26043;BME280;13818;52.156;5.382;2024-02-15T09:10:08;101178.91;;;12.97;100.00
26043;BME280;13818;52.156;5.382;2024-02-15T09:12:35;101194.19;;;12.95;100.00
26043;BME280;13818;52.156;5.382;2024-02-15T09:15:05;101187.94;;;12.94;100.00
26043;BME280;13818;52.156;5.382;2024-02-15T09:17:34;101185.13;;;12.97;100.00
26043;BME280;13818;52.156;5.382;2024-02-15T09:20:07;101190.41;;;12.99;100.00
26043;BME280;13818;52.156;5.382;2024-02-15T09:22:39;101179.81;;;12.96;100.00
26043;BME280;13818;52.156;5.382;2024-02-15T09:25:07;101187.81;;;12.97;100.00
26043;BME280;13818;52.156;5.382;2024-02-15T09:27:34;101183.00;;;13.04;100.00
26043;BME280;13818;52.156;5.382;2024-02-15T09:30:02;101177.72;;;13.02;100.00
26043;BME280;13818;52.156;5.382;2024-02-15T09:32:33;101182.28;;;13.00;100.00
26043;BME280;13818;52.156;5.382;2024-02-15T09:35:00;101184.72;;;13.05;100.00
26043;BME280;13818;52.156;5.382;2024-02-15T09:37:28;101182.91;;;13.06;100.00
26043;BME280;13818;52.156;5.382;2024-02-15T09:39:55;101188.88;;;13.11;100.00
26043;BME280;13818;52.156;5.382;2024-02-15T09:42:22;101189.78;;;13.11;100.00
26043;BME280;13818;52.156;5.382;2024-02-15T09:44:49;101185.19;;;13.13;100.00
26043;BME280;13818;52.156;5.382;2024-02-15T09:47:18;101190.31;;;13.18;100.00
26043;BME280;13818;52.156;5.382;2024-02-15T09:49:44;101199.13;;;13.20;100.00
26043;BME280;13818;52.156;5.382;2024-02-15T09:52:11;101194.63;;;13.21;100.00
26043;BME280;13818;52.156;5.382;2024-02-15T09:54:43;101190.78;;;13.26;100.00
26043;BME280;13818;52.156;5.382;2024-02-15T09:57:11;101199.75;;;13.25;100.00
26043;BME280;13818;52.156;5.382;2024-02-15T09:59:38;101193.53;;;13.25;100.00
26043;BME280;13818;52.156;5.382;2024-02-15T10:02:05;101201.66;;;13.23;100.00
26043;BME280;13818;52.156;5.382;2024-02-15T10:04:36;101188.16;;;13.25;100.00
26043;BME280;13818;52.156;5.382;2024-02-15T10:07:04;101193.22;;;13.31;100.00
26043;BME280;13818;52.156;5.382;2024-02-15T10:09:34;101202.28;;;13.28;100.00
26043;BME280;13818;52.156;5.382;2024-02-15T10:12:05;101192.28;;;13.32;100.00
26043;BME280;13818;52.156;5.382;2024-02-15T10:14:32;101197.25;;;13.40;100.00
26043;BME280;13818;52.156;5.382;2024-02-15T10:17:05;101197.97;;;13.43;100.00
26043;BME280;13818;52.156;5.382;2024-02-15T10:19:35;101194.34;;;13.44;100.00
26043;BME280;13818;52.156;5.382;2024-02-15T10:22:06;101194.03;;;13.50;100.00
26043;BME280;13818;52.156;5.382;2024-02-15T10:24:33;101190.22;;;13.55;100.00
26043;BME280;13818;52.156;5.382;2024-02-15T10:27:01;101198.19;;;13.56;100.00
26043;BME280;13818;52.156;5.382;2024-02-15T10:29:30;101205.66;;;13.67;100.00
26043;BME280;13818;52.156;5.382;2024-02-15T10:31:59;101197.38;;;13.72;100.00
26043;BME280;13818;52.156;5.382;2024-02-15T10:34:26;101190.19;;;13.72;100.00
26043;BME280;13818;52.156;5.382;2024-02-15T10:36:54;101191.66;;;13.78;100.00
26043;BME280;13818;52.156;5.382;2024-02-15T10:39:22;101193.50;;;13.77;100.00
26043;BME280;13818;52.156;5.382;2024-02-15T10:41:50;101191.00;;;13.90;100.00
26043;BME280;13818;52.156;5.382;2024-02-15T10:44:19;101191.00;;;13.90;100.00
26043;BME280;13818;52.156;5.382;2024-02-15T10:46:48;101195.16;;;13.96;100.00
26043;BME280;13818;52.156;5.382;2024-02-15T10:49:18;101185.97;;;13.84;100.00
26043;BME280;13818;52.156;5.382;2024-02-15T10:51:50;101189.97;;;13.93;100.00
26043;BME280;13818;52.156;5.382;2024-02-15T10:54:29;101182.19;;;14.04;100.00
26043;BME280;13818;52.156;5.382;2024-02-15T10:57:03;101190.31;;;14.03;100.00
26043;BME280;13818;52.156;5.382;2024-02-15T10:59:32;101181.34;;;14.04;100.00
26043;BME280;13818;52.156;5.382;2024-02-15T11:02:19;101185.06;;;14.01;100.00
26043;BME280;13818;52.156;5.382;2024-02-15T11:04:52;101180.06;;;14.11;100.00
26043;BME280;13818;52.156;5.382;2024-02-15T11:07:23;101175.66;;;14.10;100.00
26043;BME280;13818;52.156;5.382;2024-02-15T11:09:52;101181.19;;;14.23;100.00
26043;BME280;13818;52.156;5.382;2024-02-15T11:12:18;101173.31;;;14.36;100.00
26043;BME280;13818;52.156;5.382;2024-02-15T11:14:46;101179.44;;;14.38;100.00
26043;BME280;13818;52.156;5.382;2024-02-15T11:17:44;101186.88;;;14.48;100.00
26043;BME280;13818;52.156;5.382;2024-02-15T11:20:45;101160.44;;;14.42;100.00
26043;BME280;13818;52.156;5.382;2024-02-15T11:23:23;101171.81;;;14.46;100.00
26043;BME280;13818;52.156;5.382;2024-02-15T11:25:50;101179.19;;;14.42;100.00
26043;BME280;13818;52.156;5.382;2024-02-15T11:28:39;101179.00;;;14.45;100.00
26043;BME280;13818;52.156;5.382;2024-02-15T11:34:45;101173.66;;;14.45;100.00
26043;BME280;13818;52.156;5.382;2024-02-15T11:37:54;101172.06;;;14.57;100.00
26043;BME280;13818;52.156;5.382;2024-02-15T11:40:24;101163.34;;;14.54;100.00
26043;BME280;13818;52.156;5.382;2024-02-15T11:42:53;101164.13;;;14.56;100.00
26043;BME280;13818;52.156;5.382;2024-02-15T11:45:20;101152.19;;;14.61;100.00
26043;BME280;13818;52.156;5.382;2024-02-15T11:47:48;101162.91;;;14.61;100.00
26043;BME280;13818;52.156;5.382;2024-02-15T11:50:18;101150.44;;;14.60;100.00
26043;BME280;13818;52.156;5.382;2024-02-15T11:52:46;101156.66;;;14.61;100.00
26043;BME280;13818;52.156;5.382;2024-02-15T11:55:14;101150.97;;;14.67;100.00
26043;BME280;13818;52.156;5.382;2024-02-15T11:57:54;101145.44;;;14.70;100.00
26043;BME280;13818;52.156;5.382;2024-02-15T12:00:28;101143.44;;;14.74;100.00
26043;BME280;13818;52.156;5.382;2024-02-15T12:03:14;101138.25;;;14.71;100.00
26043;BME280;13818;52.156;5.382;2024-02-15T12:06:00;101140.56;;;14.77;100.00
26043;BME280;13818;52.156;5.382;2024-02-15T12:08:45;101134.06;;;14.81;100.00
26043;BME280;13818;52.156;5.382;2024-02-15T12:11:29;101126.66;;;14.70;100.00
26043;BME280;13818;52.156;5.382;2024-02-15T12:14:14;101124.31;;;14.64;100.00
26043;BME280;13818;52.156;5.382;2024-02-15T12:17:00;101116.88;;;14.69;100.00
26043;BME280;13818;52.156;5.382;2024-02-15T12:19:46;101113.47;;;14.82;100.00
26043;BME280;13818;52.156;5.382;2024-02-15T12:22:15;101111.16;;;14.75;100.00
26043;BME280;13818;52.156;5.382;2024-02-15T12:24:42;101103.78;;;14.79;100.00
26043;BME280;13818;52.156;5.382;2024-02-15T12:27:09;101099.19;;;14.81;100.00
26043;BME280;13818;52.156;5.382;2024-02-15T12:29:37;101091.81;;;14.85;100.00
26043;BME280;13818;52.156;5.382;2024-02-15T12:32:04;101092.50;;;14.88;100.00
26043;BME280;13818;52.156;5.382;2024-02-15T12:34:30;101089.72;;;14.90;100.00
26043;BME280;13818;52.156;5.382;2024-02-15T12:37:07;101090.28;;;14.95;100.00
26043;BME280;13818;52.156;5.382;2024-02-15T12:39:36;101086.47;;;14.99;100.00
26043;BME280;13818;52.156;5.382;2024-02-15T12:42:06;101084.91;;;14.95;100.00
26043;BME280;13818;52.156;5.382;2024-02-15T12:44:34;101087.81;;;14.92;100.00
26043;BME280;13818;52.156;5.382;2024-02-15T12:47:01;101088.13;;;15.02;100.00
26043;BME280;13818;52.156;5.382;2024-02-15T12:49:30;101082.38;;;15.08;100.00
26043;BME280;13818;52.156;5.382;2024-02-15T12:52:35;101072.13;;;15.15;100.00
26043;BME280;13818;52.156;5.382;2024-02-15T12:55:14;101070.97;;;15.19;100.00